Flight Track Log - Related Links

Times and Time Zones

All times are in EDT time to prevent confusion due to time zone crossing. See the N15FS flight status page for this flight to view local times or setup timezone preferences in your user account.


Time Position Orientation Groundspeed Altitude Reporting Facility
EDT Latitude Longitude Course Direction KTS MPH feet Rate Location/Type
Thu 06:25:47 PM 42.7139 -92.6622 262° West 134 154 3,000  Level Minneapolis Center
Thu 06:26:49 PM 42.7078 -92.7128 261° West 136 157 3,300 288 Climbing Minneapolis Center
Thu 06:27:52 PM 42.6992 -92.7639 257° West 138 159 3,600 288 Climbing Minneapolis Center
Thu 06:28:54 PM 42.6922 -92.8139 259° West 138 159 3,900 339 Climbing Minneapolis Center
Thu 06:29:56 PM 42.6847 -92.8736 260° West 136 157 4,300 339 Climbing Minneapolis Center
Thu 06:30:58 PM 42.6792 -92.9242 262° West 136 157 4,600 290 Climbing Minneapolis Center
Thu 06:31:00 PM 42.7074 -92.7597 262° West  Level FlightAware Approximate
Thu 06:32:00 PM 42.6769 -92.9756 267° West 137 158 4,900  Level Minneapolis Center
Thu 06:33:02 PM 42.6717 -93.0261 262° West 137 158 5,200 242 Climbing Minneapolis Center
Thu 06:34:04 PM 42.6594 -93.0761 252° West 138 159 5,400 339 Climbing Minneapolis Center
Thu 06:35:06 PM 42.6531 -93.1375 262° West 138 159 5,900 290 Climbing Minneapolis Center
Thu 06:36:08 PM 42.6481 -93.1883 262° West 138 159 6,000 48 Climbing Minneapolis Center
Thu 06:37:10 PM 42.6400 -93.2369 257° West 135 155 6,000  Level Minneapolis Center
Thu 06:38:12 PM 42.6311 -93.2889 257° West 138 159 6,000  Level Minneapolis Center
Thu 06:39:15 PM 42.6231 -93.3531 260° West 142 163 6,000 48 Level Minneapolis Center
Thu 06:40:17 PM 42.6181 -93.4061 263° West 143 165 6,100  Climbing Minneapolis Center
Thu 06:41:19 PM 42.6108 -93.4592 260° West 144 166 6,000  Descending Minneapolis Center
Thu 06:42:21 PM 42.6042 -93.5108 260° West 143 165 6,100  Climbing Minneapolis Center
Thu 06:43:23 PM 42.5972 -93.5608 259° West 140 161 6,000 -48 Descending Minneapolis Center
Thu 06:44:25 PM 42.5897 -93.6217 261° West 138 159 6,000  Level Minneapolis Center
Thu 06:45:27 PM 42.5831 -93.6731 260° West 139 160 6,000 48 Level Minneapolis Center
Thu 06:46:29 PM 42.5736 -93.7244 256° West 140 161 6,100  Climbing Minneapolis Center
Thu 06:47:43 PM 42.5661 -93.7761 259° West 140 161 6,000 -40 Descending Minneapolis Center
Thu 06:48:58 PM 42.5597 -93.8369 262° West 139 160 6,000  Level Minneapolis Center
Thu 06:50:00 PM 42.5511 -93.9069 261° West 137 158 6,000 48 Level Minneapolis Center
Thu 06:51:02 PM 42.5439 -93.9514 258° West 137 158 6,100  Climbing Minneapolis Center
Thu 06:53:00 PM 42.5270 -94.0496 265° West  Level FlightAware Approximate
Thu 07:00:00 PM 42.5024 -94.4220 265° West  Level FlightAware Approximate
Thu 07:01:00 PM 42.4989 -94.4752 265° West  Level FlightAware Approximate
Thu 07:02:00 PM 42.4952 -94.5283 265° West  Level FlightAware Approximate
Thu 07:03:00 PM 42.4916 -94.5815 265° West  Level FlightAware Approximate
Thu 07:04:00 PM 42.4879 -94.6347 265° West  Level FlightAware Approximate
Thu 07:04:17 PM 42.4492 -94.6364 264° West 121 139 6,000  Level Minneapolis Center
Thu 07:05:00 PM 42.4842 -94.6878 265° West  Level FlightAware Approximate
Thu 07:05:19 PM 42.4444 -94.6908 263° West 144 166 6,100  Level Minneapolis Center
Thu 07:06:00 PM 42.4801 -94.7409 264° West  Level FlightAware Approximate
Thu 07:06:21 PM 42.4350 -94.7514 258° West 140 161 6,100  Level Minneapolis Center
Thu 07:07:00 PM 42.4759 -94.7940 264° West  Level FlightAware Approximate
Thu 07:07:23 PM 42.4308 -94.8092 264° West 145 167 6,100  Level Minneapolis Center
Thu 07:08:00 PM 42.4717 -94.8471 264° West  Level FlightAware Approximate
Thu 07:08:37 PM 42.4236 -94.8583 259° West 142 163 6,100  Level Minneapolis Center
Thu 07:09:00 PM 42.4675 -94.9002 264° West  Level FlightAware Approximate
Thu 07:09:40 PM 42.4125 -94.9153 255° West 136 157 6,100  Level Minneapolis Center
Thu 07:10:42 PM 42.4047 -94.9683 259° West 138 159 6,000 -48 Descending Minneapolis Center
Thu 07:11:44 PM 42.3969 -95.0183 258° West 138 159 6,000  Level Minneapolis Center
Thu 07:12:46 PM 42.3875 -95.0792 258° West 138 159 6,000  Level Minneapolis Center
Thu 07:13:48 PM 42.3803 -95.1289 259° West 137 158 6,000  Level Minneapolis Center
Thu 07:14:50 PM 42.3728 -95.1811 259° West 138 159 6,000  Level Minneapolis Center
Thu 07:16:04 PM 42.3656 -95.2347 260° West 141 162 6,000  Level Minneapolis Center
Thu 07:17:07 PM 42.3569 -95.2992 260° West 143 165 6,000  Level Minneapolis Center
Thu 07:18:09 PM 42.3489 -95.3478 257° West 140 161 6,000  Level Minneapolis Center
Thu 07:19:11 PM 42.3394 -95.4106 259° West 140 161 6,000  Level Minneapolis Center
Thu 07:20:13 PM 42.3314 -95.4622 258° West 140 161 6,000  Level Minneapolis Center
Thu 07:21:15 PM 42.3242 -95.5139 259° West 140 161 6,000 88 Level Minneapolis Center
Thu 07:22:29 PM 42.3167 -95.5642 259° West 139 160 6,200 263 Climbing Minneapolis Center
Thu 07:23:32 PM 42.3075 -95.6197 257° West 135 155 6,600 384 Climbing Minneapolis Center
Thu 07:24:34 PM 42.3006 -95.6642 258° West 128 147 7,000 387 Climbing Minneapolis Center
Thu 07:25:36 PM 42.2933 -95.7161 259° West 121 139 7,400 242 Climbing Minneapolis Center
Thu 07:26:38 PM 42.2864 -95.7561 257° West 113 130 7,500 97 Climbing Minneapolis Center
Thu 07:27:40 PM 42.2789 -95.8036 258° West 121 139 7,600 97 Climbing Minneapolis Center
Thu 07:28:42 PM 42.2731 -95.8486 260° West 124 143 7,700 145 Climbing Minneapolis Center
Thu 07:29:44 PM 42.2669 -95.8933 260° West 122 140 7,900 176 Climbing Minneapolis Center
Thu 07:30:58 PM 42.2581 -95.9442 257° West 118 136 8,100 44 Climbing Minneapolis Center
Thu 07:32:01 PM 42.2478 -96.0061 257° West 132 152 8,000  Descending Minneapolis Center
Thu 07:33:03 PM 42.2400 -96.0558 258° West 137 158 8,100  Climbing Minneapolis Center
Thu 07:34:05 PM 42.2322 -96.1094 259° West 140 161 8,000 -44 Descending Minneapolis Center
Thu 07:35:19 PM 42.2239 -96.1661 259° West 134 154 8,000 44 Level Minneapolis Center
Thu 07:36:22 PM 42.2164 -96.2156 258° West 133 153 8,100  Climbing Minneapolis Center
Thu 07:37:24 PM 42.2061 -96.2761 257° West 137 158 8,000 -48 Descending Minneapolis Center
Thu 07:38:26 PM 42.1994 -96.3250 260° West 135 155 8,000 48 Level Minneapolis Center
Thu 07:39:28 PM 42.1911 -96.3744 257° West 135 155 8,100  Climbing Minneapolis Center
Thu 07:40:30 PM 42.1833 -96.4242 258° West 135 155 8,000  Descending Minneapolis Center
Thu 07:41:44 PM 42.1758 -96.4711 258° West 134 154 8,100 44 Climbing Minneapolis Center
Thu 07:42:46 PM 42.1661 -96.5278 257° West 131 151 8,100 -48 Level Minneapolis Center
Thu 07:43:48 PM 42.1575 -96.5872 259° West 132 152 8,000 -48 Descending Minneapolis Center
Thu 07:44:50 PM 42.1497 -96.6364 258° West 134 154 8,000  Level Minneapolis Center
Thu 07:45:52 PM 42.1422 -96.6850 258° West 133 153 8,000  Level Minneapolis Center
Thu 07:46:54 PM 42.1342 -96.7328 257° West 133 153 8,000 48 Level Minneapolis Center
Thu 07:47:56 PM 42.1264 -96.7806 258° West 132 152 8,100  Climbing Minneapolis Center
Thu 07:48:58 PM 42.1169 -96.8317 256° West 134 154 8,000 -48 Descending Minneapolis Center
Thu 07:50:00 PM 42.1072 -96.8925 258° West 138 159 8,000  Level Minneapolis Center
Thu 07:51:02 PM 42.1022 -96.9286 259° West 134 154 8,000  Level Minneapolis Center
Thu 07:52:04 PM 42.0925 -96.9861 257° West 131 151 8,000  Level Minneapolis Center
Thu 07:53:06 PM 42.0853 -97.0347 259° West 132 152 8,000  Level Minneapolis Center
Thu 07:54:08 PM 42.0769 -97.0836 257° West 133 153 8,000  Level Minneapolis Center
Thu 07:55:10 PM 42.0697 -97.1231 256° West 133 153 8,000  Level Minneapolis Center
Thu 07:56:13 PM 42.0589 -97.1922 258° West 135 155 8,000  Level Minneapolis Center
Thu 07:57:15 PM 42.0497 -97.2403 256° West 134 154 8,000  Level Minneapolis Center
Thu 07:58:17 PM 42.0408 -97.2897 256° West 135 155 8,000 44 Level Minneapolis Center
Thu 07:59:31 PM 42.0328 -97.3381 257° West 134 154 8,100  Climbing Minneapolis Center
Thu 08:00:38 PM 42.0225 -97.4061 259° West 134 154 8,000 -47 Descending Minneapolis Center
Thu 08:01:40 PM 42.0133 -97.4542 256° West 133 153 8,000  Level Minneapolis Center
Thu 08:02:42 PM 42.0058 -97.5042 259° West 135 155 8,000  Level Minneapolis Center
Thu 08:03:44 PM 41.9972 -97.5539 257° West 137 158 8,000 48 Level Minneapolis Center
Thu 08:04:46 PM 41.9889 -97.6042 257° West 138 159 8,100  Climbing Minneapolis Center
Thu 08:05:48 PM 41.9783 -97.6661 257° West 140 161 8,000 -48 Descending Minneapolis Center
Thu 08:06:50 PM 41.9689 -97.7175 256° West 141 162 8,000  Level Minneapolis Center
Thu 08:07:52 PM 41.9608 -97.7706 258° West 145 167 8,000  Level Minneapolis Center
Thu 08:09:05 PM 41.9514 -97.8217 256° West 142 163 8,000 44 Level Minneapolis Center
Thu 08:10:08 PM 41.9408 -97.8850 257° West 143 165 8,100  Climbing Minneapolis Center
Thu 08:11:22 PM 41.9306 -97.9378 255° West 144 166 8,000 -44 Descending Minneapolis Center
Thu 08:12:24 PM 41.9183 -98.0103 257° West 144 166 8,000  Level Minneapolis Center
Thu 08:13:26 PM 41.9083 -98.0617 255° West 143 165 8,000  Level Minneapolis Center
Thu 08:14:28 PM 41.9025 -98.1025 259° West 140 161 8,000  Level Minneapolis Center
Thu 08:15:30 PM 41.8917 -98.1631 257° West 138 159 8,000  Level Minneapolis Center
Thu 08:16:32 PM 41.8828 -98.2144 257° West 141 162 8,000  Level Minneapolis Center
Thu 08:17:34 PM 41.8736 -98.2656 256° West 142 163 8,000  Level Minneapolis Center
Thu 08:18:48 PM 41.8644 -98.3175 257° West 142 163 8,000  Level Minneapolis Center
Thu 08:19:50 PM 41.8511 -98.3894 256° West 143 165 8,000  Level Minneapolis Center
Thu 08:20:52 PM 41.8419 -98.4408 257° West 142 163 8,000  Level Minneapolis Center
Thu 08:22:06 PM 41.8325 -98.4928 256° West 143 165 8,000  Level Minneapolis Center
Thu 08:23:09 PM 41.8228 -98.5567 258° West 145 167 8,000  Level Minneapolis Center
Thu 08:24:11 PM 41.8128 -98.6092 256° West 146 168 8,000  Level Minneapolis Center
Thu 08:25:13 PM 41.8008 -98.6717 256° West 145 167 8,000  Level Minneapolis Center
Thu 08:26:15 PM 41.7922 -98.7247 258° West 145 167 8,000  Level Minneapolis Center
Thu 08:27:30 PM 41.7806 -98.7867 256° West 145 167 8,000  Level Minneapolis Center
Thu 08:28:32 PM 41.7711 -98.8386 256° West 144 166 8,000  Level Minneapolis Center
Thu 08:29:34 PM 41.7625 -98.8900 257° West 143 165 8,000  Level Minneapolis Center
Thu 08:30:36 PM 41.7533 -98.9403 256° West 141 162 8,000  Level Minneapolis Center
Thu 08:32:00 PM 41.7400 -99.0103 256° West 139 160 8,000  Level Denver Center
Thu 08:33:02 PM 41.7292 -99.0692 256° West 136 157 8,000  Level Denver Center
Thu 08:34:04 PM 41.7200 -99.1186 256° West 137 158 8,000  Level Denver Center
Thu 08:34:57 PM 41.7139 -99.1581 258° West 137 158 8,000  Level Minneapolis Center
Thu 08:35:59 PM 41.7042 -99.2083 255° West 138 159 8,000  Level Minneapolis Center
Thu 08:37:01 PM 41.6947 -99.2583 256° West 139 160 8,000  Level Minneapolis Center
Thu 08:38:03 PM 41.6833 -99.3153 255° West 136 157 8,000  Level Minneapolis Center
Thu 08:39:17 PM 41.6742 -99.3633 256° West 135 155 8,000  Level Minneapolis Center
Thu 08:40:17 PM 41.6631 -99.4214 256° West 134 154 8,000 49 Level Denver Center
Thu 08:41:19 PM 41.6539 -99.4694 256° West 133 153 8,100  Climbing Denver Center
Thu 08:42:21 PM 41.6428 -99.5194 253° West 138 159 8,000  Descending Denver Center
Thu 08:43:23 PM 41.6347 -99.5700 258° West 139 160 8,100  Climbing Denver Center
Thu 08:44:25 PM 41.6258 -99.6189 256° West 137 158 8,000 -48 Descending Denver Center
Thu 08:45:27 PM 41.6133 -99.6786 254° West 138 159 8,000  Level Denver Center
Thu 08:46:29 PM 41.6050 -99.7269 257° West 136 157 8,000  Level Denver Center
Thu 08:47:31 PM 41.5947 -99.7800 255° West 135 155 8,000 48 Level Denver Center
Thu 08:48:33 PM 41.5864 -99.8272 257° West 136 157 8,100  Climbing Denver Center
Thu 08:49:35 PM 41.5769 -99.8753 255° West 138 159 8,000 -48 Descending Denver Center
Thu 08:50:37 PM 41.5661 -99.9317 256° West 140 161 8,000  Level Denver Center
Thu 08:51:39 PM 41.5561 -99.9792 254° West 140 161 8,000  Level Denver Center
Thu 08:52:41 PM 41.5461 -100.0367 257° West 142 163 8,000  Level Denver Center
Thu 08:53:43 PM 41.5364 -100.0842 255° West 140 161 8,000  Level Denver Center
Thu 08:54:45 PM 41.5225 -100.1394 251° West 141 162 8,000  Level Denver Center
Thu 08:55:48 PM 41.5142 -100.1889 257° West 143 165 8,000  Level Denver Center
Thu 08:56:50 PM 41.5036 -100.2464 256° West 143 165 8,000  Level Denver Center
Thu 08:57:52 PM 41.4936 -100.2975 255° West 146 168 8,000  Level Denver Center
Thu 08:58:54 PM 41.4825 -100.3544 255° West 143 165 8,000  Level Denver Center
Thu 08:59:56 PM 41.4717 -100.4042 254° West 146 168 8,000  Level Denver Center
Thu 09:00:58 PM 41.4614 -100.4628 257° West 146 168 8,000  Level Denver Center
Thu 09:02:00 PM 41.4497 -100.5131 253° West 147 169 8,000 48 Level Denver Center
Thu 09:03:02 PM 41.4389 -100.5733 257° West 150 173 8,100  Climbing Denver Center
Thu 09:04:04 PM 41.4292 -100.6250 256° West 151 174 8,000 -48 Descending Denver Center
Thu 09:05:06 PM 41.4181 -100.6856 256° West 151 174 8,000  Level Denver Center
Thu 09:06:08 PM 41.4072 -100.7386 255° West 154 177 8,000  Level Denver Center
Thu 09:07:10 PM 41.3953 -100.7994 255° West 153 176 8,000  Level Denver Center
Thu 09:08:12 PM 41.3853 -100.8511 256° West 151 174 8,000  Level Denver Center
Thu 09:09:14 PM 41.3728 -100.9103 254° West 150 173 8,000  Level Denver Center
Thu 09:10:16 PM 41.3628 -100.9619 256° West 150 173 8,000  Level Denver Center
Thu 09:11:18 PM 41.3517 -101.0142 254° West 153 176 8,000 48 Level Denver Center
Thu 09:12:20 PM 41.3383 -101.0753 254° West 155 178 8,100  Climbing Denver Center
Thu 09:13:23 PM 41.3278 -101.1286 255° West 156 180 8,000  Descending Denver Center
Thu 09:14:25 PM 41.3139 -101.1903 253° West 156 180 8,100  Climbing Denver Center
Thu 09:15:27 PM 41.3036 -101.2439 256° West 156 180 8,000 -48 Descending Denver Center
Thu 09:16:29 PM 41.2908 -101.3069 255° West 157 181 8,000  Level Denver Center
Thu 09:17:31 PM 41.2786 -101.3606 253° West 158 182 8,000  Level Denver Center
Thu 09:18:33 PM 41.2661 -101.4239 255° West 158 182 8,000  Level Denver Center
Thu 09:19:35 PM 41.2547 -101.4794 255° West 161 185 8,000  Level Denver Center
Thu 09:20:37 PM 41.2417 -101.5428 255° West 161 185 8,000 48 Level Denver Center
Thu 09:21:39 PM 41.2308 -101.5994 256° West 163 188 8,100  Climbing Denver Center
Thu 09:22:41 PM 41.2169 -101.6647 254° West 164 189 8,000 -48 Descending Denver Center
Thu 09:23:43 PM 41.2044 -101.7203 253° West 164 189 8,000  Level Denver Center
Thu 09:24:45 PM 41.1911 -101.7839 254° West 162 186 8,000  Level Denver Center
Thu 09:25:47 PM 41.1797 -101.8381 254° West 160 184 8,000  Level Denver Center
Thu 09:26:49 PM 41.1669 -101.9006 255° West 159 183 8,000 48 Level Denver Center
Thu 09:27:51 PM 41.1558 -101.9542 255° West 158 182 8,100  Climbing Denver Center
Thu 09:28:53 PM 41.1414 -102.0156 253° West 157 181 8,000 -48 Descending Denver Center
Thu 09:29:55 PM 41.1294 -102.0683 253° West 156 180 8,000  Level Denver Center
Thu 09:30:57 PM 41.1186 -102.1214 255° West 156 180 8,000  Level Denver Center
Thu 09:31:59 PM 41.1058 -102.1844 255° West 158 182 8,000  Level Denver Center
Thu 09:33:01 PM 41.0942 -102.2369 254° West 156 180 8,000 48 Level Denver Center
Thu 09:34:03 PM 41.0808 -102.3003 254° West 158 182 8,100 48 Climbing Denver Center
Thu 09:35:05 PM 41.0683 -102.3539 253° West 159 183 8,100  Level Denver Center
Thu 09:36:07 PM 41.0539 -102.4189 254° West 163 188 8,100  Level Denver Center
Thu 09:37:09 PM 41.0422 -102.4744 254° West 163 188 8,100  Level Denver Center
Thu 09:38:11 PM 41.0292 -102.5403 255° West 165 190 8,100  Level Denver Center
Thu 09:39:13 PM 41.0169 -102.5956 254° West 164 189 8,100  Level Denver Center
Thu 09:40:15 PM 41.0028 -102.6600 254° West 164 189 8,100  Level Denver Center
Thu 09:41:17 PM 40.9906 -102.7156 254° West 164 189 8,100  Level Denver Center
Thu 09:42:19 PM 40.9756 -102.7794 253° West 163 188 8,100  Level Denver Center
Thu 09:43:21 PM 40.9644 -102.8317 254° West 160 184 8,100 -48 Level Denver Center
Thu 09:44:23 PM 40.9503 -102.8947 253° West 158 182 8,000 -48 Descending Denver Center
Thu 09:45:25 PM 40.9378 -102.9492 253° West 160 184 8,000 48 Level Denver Center
Thu 09:46:27 PM 40.9261 -103.0053 255° West 163 188 8,100 48 Climbing Denver Center
Thu 09:47:29 PM 40.9117 -103.0694 253° West 164 189 8,100  Level Denver Center
Thu 09:48:31 PM 40.9000 -103.1253 255° West 163 188 8,100  Level Denver Center
Thu 09:49:58 PM 40.8789 -103.2103 252° West 178 205 8,100  Level Denver Center
Thu 09:51:00 PM 40.8647 -103.2669 252° West 165 190 8,100  Level Denver Center
Thu 09:52:02 PM 40.8494 -103.3372 254° West 166 191 8,100  Level Denver Center
Thu 09:53:04 PM 40.8358 -103.3978 253° West 169 194 8,100  Level Denver Center
Thu 09:54:06 PM 40.8211 -103.4558 251° West 169 194 8,100  Level Denver Center
Thu 09:55:08 PM 40.8083 -103.5172 255° West 171 197 8,100  Level Denver Center
Thu 09:56:10 PM 40.7944 -103.5800 254° West 175 201 8,100  Level Denver Center
Thu 09:57:12 PM 40.7808 -103.6431 254° West 177 204 8,100  Level Denver Center
Thu 09:58:14 PM 40.7639 -103.7156 253° West 176 203 8,100  Level Denver Center
Thu 09:59:16 PM 40.7494 -103.7778 253° West 176 203 8,100  Level Denver Center
Thu 10:00:19 PM 40.7350 -103.8397 253° West 176 203 8,100  Level Denver Center
Thu 10:01:21 PM 40.7203 -103.9022 253° West 178 205 8,100  Level Denver Center
Thu 10:02:23 PM 40.7050 -103.9633 252° West 177 204 8,100  Level Denver Center
Thu 10:03:25 PM 40.6911 -104.0267 254° West 178 205 8,100  Level Denver Center
Thu 10:04:27 PM 40.6744 -104.0989 253° West 178 205 8,100  Level Denver Center
Thu 10:05:29 PM 40.6597 -104.1592 252° West 175 201 8,100  Level Denver Center
Thu 10:06:31 PM 40.6439 -104.2239 252° West 174 200 8,100  Level Denver Center
Thu 10:07:33 PM 40.6297 -104.2836 253° West 170 196 8,100  Level Denver Center
Thu 10:08:35 PM 40.6144 -104.3464 252° West 169 194 8,100  Level Denver Center
Thu 10:09:37 PM 40.6003 -104.4039 252° West 166 191 8,100  Level Denver Center
Thu 10:10:39 PM 40.5861 -104.4622 252° West 167 192 8,100  Level Denver Center
Thu 10:11:41 PM 40.5703 -104.5219 251° West 162 186 8,100  Level Denver Center
Thu 10:12:43 PM 40.5569 -104.5781 253° West 161 185 8,100  Level Denver Center
Thu 10:13:45 PM 40.5431 -104.6381 253° West 161 185 8,100 -48 Level Denver Center
Thu 10:14:47 PM 40.5294 -104.6919 252° West 157 181 8,000 -97 Descending Denver Center
Thu 10:15:49 PM 40.5094 -104.7392 241° Southwest 158 182 7,900 -97 Descending Denver Center

Login

Don't have an account? Register now (free) for customized features, flight alerts, and more!